createdAt,value
2022-08-04T00:00:07.761Z,22.77
2022-08-04T00:02:59.201Z,22.71
2022-08-04T00:05:37.087Z,22.69
2022-08-04T00:08:16.367Z,22.57
2022-08-04T00:10:49.176Z,22.41
2022-08-04T00:13:24.072Z,22.28
2022-08-04T00:15:59.200Z,22.17
2022-08-04T00:18:30.952Z,22.05
2022-08-04T00:21:04.592Z,21.93
2022-08-04T00:24:12.246Z,21.83
2022-08-04T00:26:26.293Z,21.82
2022-08-04T00:28:57.265Z,21.82
2022-08-04T00:31:33.326Z,21.83
2022-08-04T00:34:16.466Z,21.84
2022-08-04T00:36:45.726Z,21.78
2022-08-04T00:39:19.637Z,21.71
2022-08-04T00:41:58.522Z,21.68
2022-08-04T00:44:38.828Z,21.71
2022-08-04T00:47:25.225Z,21.65
2022-08-04T00:50:09.225Z,21.58
2022-08-04T00:52:56.251Z,21.54
2022-08-04T00:55:37.894Z,21.47
2022-08-04T00:58:29.627Z,21.45
2022-08-04T01:01:03.331Z,21.39
2022-08-04T01:03:46.060Z,21.30
2022-08-04T01:06:25.778Z,21.25
2022-08-04T01:09:21.775Z,21.29
2022-08-04T01:12:12.074Z,21.26
2022-08-04T01:14:55.516Z,21.20
2022-08-04T01:17:34.579Z,21.13
2022-08-04T01:20:07.018Z,21.07
2022-08-04T01:23:08.185Z,21.03
2022-08-04T01:26:42.651Z,21.05
2022-08-04T01:29:06.190Z,21.14
2022-08-04T01:31:48.300Z,21.18
2022-08-04T01:34:18.065Z,21.18
2022-08-04T01:36:50.019Z,21.16
2022-08-04T01:39:38.631Z,21.11
2022-08-04T01:42:09.632Z,21.07
2022-08-04T01:44:41.874Z,21.02
2022-08-04T01:47:10.923Z,21.05
2022-08-04T01:49:41.207Z,21.05
2022-08-04T01:52:11.234Z,21.02
2022-08-04T01:54:42.808Z,20.97
2022-08-04T01:57:38.636Z,20.89
2022-08-04T02:00:02.293Z,20.80
2022-08-04T02:02:32.431Z,20.68
2022-08-04T02:05:00.619Z,20.58
2022-08-04T02:07:52.158Z,20.50
2022-08-04T02:10:29.274Z,20.46
2022-08-04T02:13:10.169Z,20.40
2022-08-04T02:15:54.515Z,20.37
2022-08-04T02:18:25.801Z,20.30
2022-08-04T02:20:59.340Z,20.28
2022-08-04T02:23:35.795Z,20.32
2022-08-04T02:26:05.835Z,20.34
2022-08-04T02:28:41.175Z,20.34
2022-08-04T02:31:19.409Z,20.36
2022-08-04T02:33:56.448Z,20.36
2022-08-04T02:36:31.520Z,20.36
2022-08-04T02:39:01.906Z,20.34
2022-08-04T02:41:31.892Z,20.33
2022-08-04T02:44:01.651Z,20.31
2022-08-04T02:46:32.818Z,20.28
2022-08-04T02:49:03.480Z,20.18
2022-08-04T02:51:34.807Z,20.09
2022-08-04T02:54:05.899Z,20.10
2022-08-04T02:56:39.155Z,20.15
2022-08-04T02:59:08.993Z,20.14
2022-08-04T03:01:56.433Z,20.29
2022-08-04T03:04:46.656Z,20.32
2022-08-04T03:07:36.434Z,20.33
2022-08-04T03:10:29.368Z,20.23
2022-08-04T03:13:25.165Z,20.11
2022-08-04T03:16:07.534Z,20.00
2022-08-04T03:19:03.243Z,20.03
2022-08-04T03:22:09.484Z,20.10
2022-08-04T03:25:10.208Z,20.05
2022-08-04T03:28:10.163Z,20.32
2022-08-04T03:30:54.677Z,20.40
2022-08-04T03:33:46.391Z,20.24
2022-08-04T03:36:52.929Z,20.12
2022-08-04T03:39:49.218Z,19.94
2022-08-04T03:42:54.374Z,19.79
2022-08-04T03:45:47.875Z,19.66
2022-08-04T03:48:41.101Z,19.54
2022-08-04T03:51:49.380Z,19.47
2022-08-04T03:54:40.881Z,19.39
2022-08-04T03:57:48.561Z,19.33
2022-08-04T04:00:19.798Z,19.28
2022-08-04T04:03:30.928Z,19.25
2022-08-04T04:06:41.263Z,19.36
2022-08-04T04:09:57.069Z,19.37
2022-08-04T04:12:50.727Z,19.41
2022-08-04T04:15:48.232Z,19.46
2022-08-04T04:18:33.739Z,19.50
2022-08-04T04:21:22.974Z,19.50
2022-08-04T04:24:33.859Z,19.46
2022-08-04T04:27:10.926Z,19.46
2022-08-04T04:30:02.660Z,19.46
2022-08-04T04:32:44.744Z,19.46
2022-08-04T04:35:24.017Z,19.47
2022-08-04T04:38:21.297Z,19.49
2022-08-04T04:41:00.966Z,19.53
2022-08-04T04:43:52.323Z,19.55
2022-08-04T04:46:31.406Z,19.58
2022-08-04T04:49:06.527Z,19.63
2022-08-04T04:51:43.476Z,19.70
2022-08-04T04:54:22.800Z,19.79
2022-08-04T04:57:02.539Z,19.86
2022-08-04T04:59:35.546Z,19.95
2022-08-04T05:02:31.673Z,20.06
2022-08-04T05:05:13.091Z,20.16
2022-08-04T05:08:43.820Z,20.27
2022-08-04T05:11:11.366Z,20.45
2022-08-04T05:14:34.479Z,20.55
2022-08-04T05:16:37.100Z,20.71
2022-08-04T05:19:16.166Z,20.82
2022-08-04T05:21:49.306Z,20.96
2022-08-04T05:24:21.951Z,21.04
2022-08-04T05:26:53.282Z,21.19
2022-08-04T05:29:31.924Z,21.29
2022-08-04T05:32:06.647Z,21.42
2022-08-04T05:34:42.015Z,21.59
2022-08-04T05:37:12.996Z,21.75
2022-08-04T05:39:47.136Z,21.88
2022-08-04T05:42:16.523Z,22.06
2022-08-04T05:44:50.938Z,22.22
2022-08-04T05:47:21.392Z,22.33
2022-08-04T05:49:55.557Z,22.42
2022-08-04T05:52:31.299Z,22.59
2022-08-04T05:55:01.420Z,22.73
2022-08-04T05:57:30.695Z,22.88
2022-08-04T06:00:10.506Z,23.05
2022-08-04T06:02:50.519Z,23.23
2022-08-04T06:05:19.401Z,23.34
2022-08-04T06:08:11.850Z,23.52
2022-08-04T06:10:38.840Z,23.68
2022-08-04T06:13:11.177Z,23.81
2022-08-04T06:16:02.894Z,24.06
2022-08-04T06:20:02.189Z,24.20
2022-08-04T06:21:27.946Z,24.45
2022-08-04T06:24:04.093Z,24.62
2022-08-04T06:26:35.734Z,24.88
2022-08-04T06:29:05.255Z,25.13
2022-08-04T06:32:28.710Z,25.39
2022-08-04T06:34:36.659Z,25.76
2022-08-04T06:37:05.537Z,26.02
2022-08-04T06:39:34.948Z,26.32
2022-08-04T06:42:21.431Z,26.59
2022-08-04T06:44:54.983Z,26.75
2022-08-04T06:47:25.823Z,27.03
2022-08-04T06:51:27.049Z,27.32
2022-08-04T06:52:46.286Z,27.73
2022-08-04T06:55:14.598Z,28.13
2022-08-04T06:57:45.189Z,28.56
2022-08-04T07:00:15.014Z,28.69
2022-08-04T07:02:47.034Z,28.92
2022-08-04T07:05:16.344Z,29.17
2022-08-04T07:07:58.153Z,29.52
2022-08-04T07:10:28.645Z,29.91
2022-08-04T07:12:57.647Z,30.11
2022-08-04T07:15:26.834Z,30.09
2022-08-04T07:17:59.875Z,30.09
2022-08-04T07:20:35.266Z,29.91
2022-08-04T07:23:05.019Z,30.44
2022-08-04T07:26:00.463Z,30.69
2022-08-04T07:28:24.431Z,30.46
2022-08-04T07:30:54.446Z,30.95
2022-08-04T07:33:25.819Z,31.10
2022-08-04T07:36:10.518Z,31.28
2022-08-04T07:38:48.729Z,31.78
2022-08-04T07:41:39.010Z,31.96
2022-08-04T07:44:08.475Z,32.13
2022-08-04T07:46:36.474Z,32.03
2022-08-04T07:49:06.876Z,32.26
2022-08-04T07:51:37.895Z,32.44
2022-08-04T07:54:07.714Z,32.58
2022-08-04T07:56:38.192Z,32.47
2022-08-04T07:59:07.249Z,33.10
2022-08-04T08:01:37.612Z,32.89
2022-08-04T08:04:09.104Z,33.09
2022-08-04T08:06:43.138Z,33.50
2022-08-04T08:09:14.688Z,33.44
2022-08-04T08:12:35.299Z,33.23
2022-08-04T08:14:33.484Z,33.53
2022-08-04T08:17:02.893Z,33.51
2022-08-04T08:19:32.703Z,33.70
2022-08-04T08:22:04.902Z,34.25
2022-08-04T08:24:37.404Z,34.18
2022-08-04T08:27:06.753Z,33.80
2022-08-04T08:29:36.144Z,34.04
2022-08-04T08:32:09.169Z,34.57
2022-08-04T08:34:39.548Z,34.80
2022-08-04T08:37:15.259Z,35.37
2022-08-04T08:39:51.388Z,35.66
2022-08-04T08:42:55.968Z,35.60
2022-08-04T08:45:47.695Z,34.75
2022-08-04T08:48:53.517Z,34.46
2022-08-04T08:51:37.604Z,35.01
2022-08-04T08:54:38.475Z,34.68
2022-08-04T08:57:22.919Z,35.02
2022-08-04T09:00:05.333Z,35.58
2022-08-04T09:03:04.398Z,36.40
2022-08-04T09:06:11.693Z,36.65
2022-08-04T09:09:02.613Z,36.47
2022-08-04T09:11:41.119Z,37.13
2022-08-04T09:14:18.259Z,37.19
2022-08-04T09:16:50.492Z,37.42
2022-08-04T09:19:37.395Z,37.25
2022-08-04T09:22:14.524Z,37.58
2022-08-04T09:24:54.973Z,37.45
2022-08-04T09:27:40.787Z,37.48
2022-08-04T09:30:11.802Z,37.76
2022-08-04T09:32:48.564Z,37.86
2022-08-04T09:35:25.270Z,37.44
2022-08-04T09:38:06.225Z,37.53
2022-08-04T09:40:55.114Z,38.38
2022-08-04T09:44:43.103Z,37.80
2022-08-04T09:46:28.957Z,37.77
2022-08-04T09:49:02.807Z,38.47
2022-08-04T09:51:56.732Z,38.73
2022-08-04T09:54:34.591Z,37.67
2022-08-04T09:57:15.403Z,38.78
2022-08-04T09:59:52.560Z,39.40
2022-08-04T10:02:24.526Z,37.83
2022-08-04T10:04:56.255Z,38.37
2022-08-04T10:08:15.176Z,38.81
2022-08-04T10:10:47.558Z,39.00
2022-08-04T10:13:26.854Z,39.67
2022-08-04T10:16:08.659Z,39.16
2022-08-04T10:18:46.575Z,39.72
2022-08-04T10:21:23.805Z,40.01
2022-08-04T10:24:12.579Z,40.13
2022-08-04T10:26:53.126Z,40.46
2022-08-04T10:29:28.861Z,40.42
2022-08-04T10:32:01.705Z,40.36
2022-08-04T10:34:33.217Z,39.44
2022-08-04T10:37:07.311Z,40.64
2022-08-04T10:40:08.115Z,40.62
2022-08-04T10:42:42.914Z,40.35
2022-08-04T10:45:19.097Z,40.81
2022-08-04T10:47:57.947Z,41.03
2022-08-04T10:50:29.440Z,40.42
2022-08-04T10:53:04.071Z,40.07
2022-08-04T10:56:07.380Z,40.63
2022-08-04T10:58:47.640Z,40.19
2022-08-04T11:01:50.772Z,39.97
2022-08-04T11:04:27.583Z,41.08
2022-08-04T11:06:57.437Z,40.98
2022-08-04T11:09:29.895Z,40.14
2022-08-04T11:12:04.663Z,40.59
2022-08-04T11:14:38.835Z,39.51
2022-08-04T11:17:16.686Z,40.24
2022-08-04T11:19:53.505Z,41.14
2022-08-04T11:22:26.537Z,41.45
2022-08-04T11:25:05.166Z,40.97
2022-08-04T11:27:39.582Z,40.70
2022-08-04T11:30:13.480Z,41.35
2022-08-04T11:32:52.131Z,41.21
2022-08-04T11:35:28.713Z,41.67
2022-08-04T11:38:03.443Z,41.89
2022-08-04T11:40:39.201Z,42.02
2022-08-04T11:43:13.912Z,41.09
2022-08-04T11:45:48.709Z,41.18
2022-08-04T11:48:23.921Z,42.17
2022-08-04T11:50:54.307Z,42.54
2022-08-04T11:53:24.906Z,42.71
2022-08-04T11:56:09.088Z,42.16
2022-08-04T11:58:39.557Z,43.09
2022-08-04T12:01:17.422Z,42.97
2022-08-04T12:04:03.620Z,42.89
2022-08-04T12:06:40.325Z,42.83
2022-08-04T12:09:22.440Z,42.54
2022-08-04T12:12:00.026Z,42.48
2022-08-04T12:14:36.632Z,42.66
2022-08-04T12:17:06.101Z,42.64
2022-08-04T12:20:03.507Z,40.69
2022-08-04T12:22:31.396Z,41.36
2022-08-04T12:25:04.759Z,41.35
2022-08-04T12:27:36.056Z,41.26
2022-08-04T12:30:59.776Z,40.47
2022-08-04T12:33:01.307Z,40.60
2022-08-04T12:35:36.422Z,41.43
2022-08-04T12:38:07.995Z,41.60
2022-08-04T12:40:41.787Z,41.53
2022-08-04T12:43:14.153Z,41.66
2022-08-04T12:45:48.787Z,41.57
2022-08-04T12:48:21.347Z,41.34
2022-08-04T12:50:53.826Z,41.38
2022-08-04T12:53:31.784Z,41.37
2022-08-04T12:56:02.592Z,41.42
2022-08-04T12:58:41.989Z,41.47
2022-08-04T13:02:10.718Z,40.88
2022-08-04T13:04:12.494Z,41.40
2022-08-04T13:06:43.791Z,41.71
2022-08-04T13:09:18.611Z,41.80
2022-08-04T13:11:51.583Z,42.29
2022-08-04T13:14:27.422Z,42.26
2022-08-04T13:17:00.164Z,41.82
2022-08-04T13:19:29.065Z,41.74
2022-08-04T13:22:03.309Z,42.09
2022-08-04T13:24:57.013Z,41.52
2022-08-04T13:27:26.829Z,41.78
2022-08-04T13:30:03.543Z,42.21
2022-08-04T13:32:33.243Z,42.79
2022-08-04T13:35:03.804Z,42.62
2022-08-04T13:37:35.860Z,42.72
2022-08-04T13:40:06.218Z,42.90
2022-08-04T13:42:36.099Z,43.03
2022-08-04T13:45:07.385Z,42.15
2022-08-04T13:47:38.633Z,42.50
2022-08-04T13:50:13.789Z,42.97
2022-08-04T13:52:44.620Z,42.99
2022-08-04T13:55:23.496Z,43.36
2022-08-04T13:57:56.302Z,43.34
2022-08-04T14:00:29.666Z,43.47
2022-08-04T14:03:23.975Z,44.42
2022-08-04T14:06:16.065Z,43.97
2022-08-04T14:08:49.271Z,44.06
2022-08-04T14:12:06.869Z,43.93
2022-08-04T14:14:19.737Z,43.75
2022-08-04T14:17:02.606Z,42.50
2022-08-04T14:19:48.939Z,41.94
2022-08-04T14:22:34.973Z,41.15
2022-08-04T14:25:09.290Z,40.68
2022-08-04T14:27:46.333Z,40.15
2022-08-04T14:30:26.052Z,39.82
2022-08-04T14:32:59.020Z,39.20
2022-08-04T14:35:58.460Z,39.51
2022-08-04T14:38:43.046Z,38.71
2022-08-04T14:41:13.179Z,38.64
2022-08-04T14:43:49.468Z,38.56
2022-08-04T14:46:18.266Z,38.22
2022-08-04T14:49:10.472Z,38.16
2022-08-04T14:51:41.745Z,37.98
2022-08-04T14:54:17.233Z,38.54
2022-08-04T14:56:53.810Z,39.27
2022-08-04T14:59:22.575Z,39.05
2022-08-04T15:02:00.570Z,38.82
2022-08-04T15:04:31.229Z,38.76
2022-08-04T15:07:00.484Z,38.41
2022-08-04T15:09:29.175Z,38.24
2022-08-04T15:11:58.822Z,38.06
2022-08-04T15:14:37.165Z,38.11
2022-08-04T15:17:12.527Z,38.07
2022-08-04T15:19:56.645Z,37.97
2022-08-04T15:22:24.943Z,38.10
2022-08-04T15:24:55.483Z,38.86
2022-08-04T15:27:29.798Z,39.25
2022-08-04T15:30:02.271Z,39.86
2022-08-04T15:32:33.087Z,40.14
2022-08-04T15:35:06.547Z,39.91
2022-08-04T15:37:43.775Z,39.74
2022-08-04T15:40:16.028Z,39.49
2022-08-04T15:42:49.730Z,39.55
2022-08-04T15:45:23.863Z,39.43
2022-08-04T15:48:33.314Z,39.21
2022-08-04T15:51:14.401Z,38.84
2022-08-04T15:54:23.547Z,38.67
2022-08-04T15:57:01.645Z,38.69
2022-08-04T16:00:02.125Z,38.29
2022-08-04T16:02:43.530Z,38.10
2022-08-04T16:05:33.500Z,37.97
2022-08-04T16:08:04.628Z,38.16
2022-08-04T16:10:41.711Z,38.47
2022-08-04T16:13:13.738Z,37.96
2022-08-04T16:15:46.756Z,38.09
2022-08-04T16:18:26.098Z,38.13
2022-08-04T16:21:03.510Z,38.28
2022-08-04T16:24:00.772Z,38.06
2022-08-04T16:26:57.343Z,37.79
2022-08-04T16:29:27.189Z,37.67
2022-08-04T16:32:16.398Z,37.75
2022-08-04T16:34:55.441Z,37.72
2022-08-04T16:37:26.470Z,37.21
2022-08-04T16:40:35.155Z,37.23
2022-08-04T16:43:10.261Z,37.02
2022-08-04T16:45:54.239Z,36.72
2022-08-04T16:48:27.252Z,36.71
2022-08-04T16:51:05.254Z,36.60
2022-08-04T16:53:53.281Z,36.64
2022-08-04T16:56:30.211Z,36.28
2022-08-04T16:59:07.228Z,36.36
2022-08-04T17:01:35.968Z,36.37
2022-08-04T17:04:08.407Z,36.31
2022-08-04T17:06:38.364Z,36.15
2022-08-04T17:09:08.307Z,36.00
2022-08-04T17:11:36.470Z,35.87
2022-08-04T17:14:06.007Z,35.80
2022-08-04T17:16:35.978Z,35.75
2022-08-04T17:19:06.799Z,35.75
2022-08-04T17:21:49.060Z,35.72
2022-08-04T17:24:18.044Z,35.52
2022-08-04T17:29:44.572Z,35.32
2022-08-04T17:32:19.448Z,35.10
2022-08-04T17:34:50.758Z,34.93
2022-08-04T17:37:41.252Z,34.86
2022-08-04T17:40:13.258Z,34.82
2022-08-04T17:42:45.241Z,34.80
2022-08-04T17:48:09.786Z,34.68
2022-08-04T17:50:43.786Z,34.64
2022-08-04T17:56:00.916Z,34.43
2022-08-04T17:58:35.002Z,34.30
2022-08-04T18:01:24.054Z,34.20
2022-08-04T18:03:53.717Z,34.03
2022-08-04T18:06:25.847Z,33.88
2022-08-04T18:08:58.869Z,33.67
2022-08-04T18:11:53.515Z,33.42
2022-08-04T18:14:25.825Z,33.26
2022-08-04T18:16:56.804Z,33.08
2022-08-04T18:19:25.126Z,32.86
2022-08-04T18:21:59.637Z,32.71
2022-08-04T18:24:36.062Z,32.54
2022-08-04T18:27:19.632Z,32.34
2022-08-04T18:30:15.021Z,32.24
2022-08-04T18:32:36.335Z,32.01
2022-08-04T18:35:07.552Z,31.83
2022-08-04T18:38:06.685Z,31.64
2022-08-04T18:40:37.841Z,31.47
2022-08-04T18:43:16.496Z,31.35
2022-08-04T18:45:56.332Z,31.21
2022-08-04T18:48:36.066Z,31.13
2022-08-04T18:51:22.772Z,31.04
2022-08-04T18:53:58.459Z,31.05
2022-08-04T18:56:31.854Z,31.06
2022-08-04T18:59:02.924Z,31.11
2022-08-04T19:02:12.335Z,31.05
2022-08-04T19:04:34.041Z,30.96
2022-08-04T19:07:29.235Z,30.69
2022-08-04T19:09:57.931Z,30.65
2022-08-04T19:12:28.589Z,30.65
2022-08-04T19:15:10.271Z,30.58
2022-08-04T19:17:55.176Z,30.36
2022-08-04T19:20:26.916Z,30.15
2022-08-04T19:24:27.868Z,29.95
2022-08-04T19:26:02.200Z,29.82
2022-08-04T19:28:35.170Z,29.57
2022-08-04T19:31:05.414Z,29.44
2022-08-04T19:36:27.609Z,29.13
2022-08-04T19:38:57.179Z,29.12
2022-08-04T19:41:29.431Z,29.09
2022-08-04T19:43:58.792Z,29.00
2022-08-04T19:46:28.542Z,28.90
2022-08-04T19:48:59.522Z,28.83
2022-08-04T19:51:29.917Z,28.80
2022-08-04T19:54:03.838Z,28.81
2022-08-04T19:56:40.694Z,28.79
2022-08-04T19:59:10.198Z,28.76
2022-08-04T20:01:44.040Z,28.75
2022-08-04T20:04:14.215Z,28.80
2022-08-04T20:06:42.728Z,28.85
2022-08-04T20:09:24.750Z,28.82
2022-08-04T20:11:56.645Z,28.78
2022-08-04T20:14:32.555Z,28.75
2022-08-04T20:17:03.168Z,28.84
2022-08-04T20:19:38.785Z,28.88
2022-08-04T20:22:46.290Z,28.83
2022-08-04T20:25:01.097Z,28.74
2022-08-04T20:27:59.647Z,28.62
2022-08-04T20:30:29.549Z,28.55
2022-08-04T20:32:57.839Z,28.53
2022-08-04T20:35:27.102Z,28.43
2022-08-04T20:38:00.829Z,28.32
2022-08-04T20:40:30.429Z,28.18
2022-08-04T20:43:00.564Z,28.07
2022-08-04T20:45:31.817Z,28.03
2022-08-04T20:48:17.132Z,28.00
2022-08-04T20:50:47.010Z,28.02
2022-08-04T20:53:17.054Z,27.98
2022-08-04T20:55:55.510Z,27.93
2022-08-04T20:58:27.325Z,27.79
2022-08-04T21:00:56.068Z,27.71
2022-08-04T21:03:49.353Z,27.69
2022-08-04T21:06:13.627Z,27.62
2022-08-04T21:08:44.106Z,27.65
2022-08-04T21:11:32.756Z,27.61
2022-08-04T21:14:02.916Z,27.59
2022-08-04T21:16:54.022Z,27.55
2022-08-04T21:19:24.392Z,27.56
2022-08-04T21:21:53.488Z,27.53
2022-08-04T21:24:26.173Z,27.51
2022-08-04T21:26:56.773Z,27.58
2022-08-04T21:29:34.693Z,27.52
2022-08-04T21:32:05.847Z,27.47
2022-08-04T21:34:37.863Z,27.38
2022-08-04T21:37:10.238Z,27.30
2022-08-04T21:39:50.838Z,27.23
2022-08-04T21:42:30.615Z,27.31
2022-08-04T21:45:02.434Z,27.29
2022-08-04T21:47:45.954Z,27.28
2022-08-04T21:50:19.846Z,27.27
2022-08-04T21:52:49.120Z,27.32
2022-08-04T21:55:19.110Z,27.17
2022-08-04T21:57:49.342Z,27.18
2022-08-04T22:00:20.274Z,27.08
2022-08-04T22:02:53.202Z,27.03
2022-08-04T22:05:22.296Z,27.02
2022-08-04T22:07:51.706Z,27.16
2022-08-04T22:10:22.458Z,27.32
2022-08-04T22:13:06.976Z,27.42
2022-08-04T22:16:03.982Z,27.52
2022-08-04T22:18:27.511Z,27.68
2022-08-04T22:20:56.313Z,27.82
2022-08-04T22:23:25.409Z,27.83
2022-08-04T22:25:56.174Z,28.01
2022-08-04T22:28:28.506Z,27.88
2022-08-04T22:30:58.363Z,27.75
2022-08-04T22:33:54.916Z,27.75
2022-08-04T22:36:16.740Z,27.70
2022-08-04T22:38:51.111Z,27.59
2022-08-04T22:41:23.728Z,27.29
2022-08-04T22:44:02.287Z,27.10
2022-08-04T22:46:32.015Z,26.98
2022-08-04T22:49:00.100Z,26.75
2022-08-04T22:51:28.279Z,26.67
2022-08-04T22:53:58.192Z,26.52
2022-08-04T22:56:38.659Z,26.77
2022-08-04T22:59:10.882Z,26.59
2022-08-04T23:01:59.836Z,26.57
2022-08-04T23:04:30.654Z,26.73
2022-08-04T23:06:59.317Z,26.66
2022-08-04T23:09:50.108Z,26.59
2022-08-04T23:12:26.165Z,26.57
2022-08-04T23:14:55.607Z,26.56
2022-08-04T23:17:27.300Z,26.57
2022-08-04T23:19:58.678Z,26.51
2022-08-04T23:22:41.942Z,26.52
2022-08-04T23:25:15.463Z,26.31
2022-08-04T23:27:50.463Z,26.39
2022-08-04T23:30:24.864Z,26.30
2022-08-04T23:32:59.522Z,26.31
2022-08-04T23:35:27.817Z,26.25
2022-08-04T23:37:57.270Z,26.24
2022-08-04T23:40:32.625Z,26.20
2022-08-04T23:43:12.154Z,26.21
2022-08-04T23:46:05.165Z,26.28
2022-08-04T23:48:36.170Z,26.31
2022-08-04T23:51:13.820Z,26.36
2022-08-04T23:54:01.630Z,26.39
2022-08-04T23:56:32.104Z,26.41
2022-08-04T23:59:03.699Z,26.49
